createdAt,value
2019-03-04T00:00:55.113Z,8.08
2019-03-04T00:03:25.715Z,6.72
2019-03-04T00:05:56.200Z,5.33
2019-03-04T00:08:26.653Z,9.85
2019-03-04T00:10:57.141Z,6.62
2019-03-04T00:13:27.596Z,6.17
2019-03-04T00:15:58.005Z,8.60
2019-03-04T00:18:28.513Z,9.48
2019-03-04T00:20:58.943Z,7.15
2019-03-04T00:23:29.392Z,7.67
2019-03-04T00:25:59.810Z,9.83
2019-03-04T00:28:30.338Z,8.63
2019-03-04T00:31:00.772Z,9.25
2019-03-04T00:33:31.418Z,6.55
2019-03-04T00:36:01.826Z,6.67
2019-03-04T00:38:32.354Z,6.90
2019-03-04T00:41:02.772Z,6.80
2019-03-04T00:43:33.215Z,5.92
2019-03-04T00:46:03.640Z,5.15
2019-03-04T00:48:34.192Z,6.28
2019-03-04T00:51:04.596Z,5.28
2019-03-04T00:53:35.043Z,7.75
2019-03-04T00:56:05.442Z,4.45
2019-03-04T00:58:35.901Z,6.67
2019-03-04T01:01:06.324Z,5.90
2019-03-04T01:03:36.774Z,8.08
2019-03-04T01:06:07.193Z,9.15
2019-03-04T01:08:37.643Z,6.87
2019-03-04T01:11:09.219Z,5.70
2019-03-04T01:13:39.745Z,6.45
2019-03-04T01:16:10.165Z,5.08
2019-03-04T01:18:40.694Z,7.70
2019-03-04T01:21:11.116Z,6.83
2019-03-04T01:23:41.636Z,6.72
2019-03-04T01:26:12.061Z,6.22
2019-03-04T01:28:42.515Z,6.85
2019-03-04T01:31:12.992Z,5.17
2019-03-04T01:33:43.443Z,5.90
2019-03-04T01:36:13.865Z,6.53
2019-03-04T01:38:44.710Z,4.85
2019-03-04T01:41:15.105Z,7.20
2019-03-04T01:43:45.574Z,4.47
2019-03-04T01:46:16.985Z,5.15
2019-03-04T01:48:47.595Z,8.13
2019-03-04T01:51:18.036Z,4.97
2019-03-04T01:53:49.562Z,4.75
2019-03-04T01:56:19.985Z,5.97
2019-03-04T01:58:50.511Z,5.10
2019-03-04T02:01:20.914Z,6.33
2019-03-04T02:03:51.370Z,6.53
2019-03-04T02:06:21.802Z,6.42
2019-03-04T02:08:52.336Z,7.28
2019-03-04T02:11:22.876Z,3.35
2019-03-04T02:13:53.410Z,4.97
2019-03-04T02:16:23.841Z,3.85
2019-03-04T02:18:54.357Z,4.67
2019-03-04T02:21:24.764Z,6.55
2019-03-04T02:23:55.205Z,6.70
2019-03-04T02:26:25.703Z,6.05
2019-03-04T02:28:56.158Z,4.40
2019-03-04T02:31:26.566Z,7.05
2019-03-04T02:33:57.025Z,5.15
2019-03-04T02:36:27.439Z,6.62
2019-03-04T02:38:57.898Z,4.65
2019-03-04T02:41:28.322Z,6.80
2019-03-04T02:43:58.819Z,4.37
2019-03-04T02:46:29.262Z,4.30
2019-03-04T02:48:59.780Z,5.78
2019-03-04T02:51:30.254Z,4.60
2019-03-04T02:54:00.693Z,5.97
2019-03-04T02:56:31.110Z,7.17
2019-03-04T02:59:01.637Z,6.25
2019-03-04T03:01:32.074Z,5.65
2019-03-04T03:04:02.521Z,5.28
2019-03-04T03:06:33.084Z,6.00
2019-03-04T03:09:04.536Z,5.87
2019-03-04T03:11:36.220Z,6.00
2019-03-04T03:14:06.640Z,6.40
2019-03-04T03:16:37.138Z,7.87
2019-03-04T03:19:07.680Z,4.55
2019-03-04T03:21:38.111Z,7.70
2019-03-04T03:24:08.567Z,5.75
2019-03-04T03:26:40.064Z,5.10
2019-03-04T03:29:10.513Z,5.95
2019-03-04T03:31:40.928Z,6.78
2019-03-04T03:34:11.383Z,5.08
2019-03-04T03:36:41.847Z,5.72
2019-03-04T03:39:12.291Z,5.78
2019-03-04T03:41:42.774Z,3.55
2019-03-04T03:44:13.317Z,5.70
2019-03-04T03:46:43.745Z,6.10
2019-03-04T03:49:14.194Z,5.47
2019-03-04T03:51:44.595Z,5.25
2019-03-04T03:54:15.053Z,7.20
2019-03-04T03:56:45.466Z,4.85
2019-03-04T03:59:15.927Z,5.78
2019-03-04T04:01:46.351Z,6.35
2019-03-04T04:04:17.288Z,6.58
2019-03-04T04:06:47.692Z,7.33
2019-03-04T04:09:18.211Z,7.90
2019-03-04T04:11:48.610Z,4.35
2019-03-04T04:14:19.070Z,4.75
2019-03-04T04:16:49.546Z,7.20
2019-03-04T04:19:20.001Z,6.12
2019-03-04T04:21:50.415Z,4.60
2019-03-04T04:24:21.953Z,5.83
2019-03-04T04:26:52.447Z,5.80
2019-03-04T04:29:22.917Z,6.35
2019-03-04T04:31:53.327Z,5.75
2019-03-04T04:34:23.781Z,10.32
2019-03-04T04:36:54.207Z,6.33
2019-03-04T04:39:25.307Z,5.08
2019-03-04T04:41:55.784Z,7.08
2019-03-04T04:44:26.251Z,5.50
2019-03-04T04:46:56.680Z,6.15
2019-03-04T04:49:27.121Z,6.28
2019-03-04T04:51:57.612Z,8.53
2019-03-04T04:54:28.062Z,5.42
2019-03-04T04:56:58.463Z,3.72
2019-03-04T04:59:28.897Z,5.40
2019-03-04T05:01:59.377Z,6.22
2019-03-04T05:04:30.190Z,6.08
2019-03-04T05:07:00.675Z,5.50
2019-03-04T05:09:31.115Z,5.55
2019-03-04T05:12:01.536Z,5.92
2019-03-04T05:14:32.053Z,5.97
2019-03-04T05:17:02.536Z,6.35
2019-03-04T05:19:33.058Z,5.20
2019-03-04T05:22:03.501Z,10.85
2019-03-04T05:24:33.955Z,7.25
2019-03-04T05:27:05.445Z,6.37
2019-03-04T05:29:35.903Z,5.72
2019-03-04T05:32:06.393Z,12.98
2019-03-04T05:34:36.818Z,7.75
2019-03-04T05:37:07.502Z,7.80
2019-03-04T05:39:37.958Z,7.90
2019-03-04T05:42:08.380Z,9.30
2019-03-04T05:44:38.933Z,9.13
2019-03-04T05:47:09.424Z,8.63
2019-03-04T05:49:39.974Z,8.95
2019-03-04T05:52:10.414Z,6.50
2019-03-04T05:54:40.861Z,5.53
2019-03-04T05:57:11.645Z,7.12
2019-03-04T05:59:43.910Z,8.68
2019-03-04T06:02:14.487Z,7.90
2019-03-04T06:04:44.966Z,8.83
2019-03-04T06:07:19.978Z,11.33
2019-03-04T06:09:50.510Z,9.30
2019-03-04T06:12:20.989Z,7.95
2019-03-04T06:14:51.483Z,9.63
2019-03-04T06:17:21.950Z,7.30
2019-03-04T06:19:52.418Z,7.22
2019-03-04T06:22:22.865Z,7.20
2019-03-04T06:24:53.388Z,6.75
2019-03-04T06:27:23.826Z,10.80
2019-03-04T06:29:54.291Z,8.23
2019-03-04T06:32:26.421Z,9.28
2019-03-04T06:34:57.368Z,14.03
2019-03-04T06:37:27.845Z,11.45
2019-03-04T06:39:58.354Z,12.33
2019-03-04T06:42:29.003Z,15.88
2019-03-04T06:44:59.452Z,12.90
2019-03-04T06:47:29.903Z,13.85
2019-03-04T06:50:00.372Z,11.63
2019-03-04T06:52:30.891Z,10.13
2019-03-04T06:55:07.548Z,9.05
2019-03-04T06:57:38.047Z,10.85
2019-03-04T07:00:17.014Z,9.40
2019-03-04T07:02:47.680Z,8.78
2019-03-04T07:05:24.603Z,10.70
2019-03-04T07:07:56.093Z,11.60
2019-03-04T07:10:28.455Z,9.33
2019-03-04T07:12:58.949Z,12.43
2019-03-04T07:15:29.577Z,15.95
2019-03-04T07:18:00.167Z,14.10
2019-03-04T07:20:30.788Z,11.78
2019-03-04T07:23:04.016Z,12.43
2019-03-04T07:25:34.479Z,13.83
2019-03-04T07:28:08.425Z,12.03
2019-03-04T07:30:47.375Z,12.73
2019-03-04T07:33:17.924Z,14.60
2019-03-04T07:35:48.866Z,15.93
2019-03-04T07:38:22.585Z,11.63
2019-03-04T07:40:55.657Z,10.98
2019-03-04T07:43:37.925Z,12.50
2019-03-04T07:46:08.527Z,10.32
2019-03-04T07:48:40.683Z,14.18
2019-03-04T07:51:20.457Z,10.45
2019-03-04T07:53:57.256Z,14.47
2019-03-04T07:56:34.235Z,28.77
2019-03-04T07:59:05.854Z,25.80
2019-03-04T08:01:43.867Z,17.20
2019-03-04T08:04:14.631Z,9.93
2019-03-04T08:06:50.275Z,20.23
2019-03-04T08:09:26.739Z,10.90
2019-03-04T08:12:17.276Z,14.20
2019-03-04T08:15:08.313Z,8.73
2019-03-04T08:17:39.330Z,10.68
2019-03-04T08:20:09.832Z,17.20
2019-03-04T08:22:40.379Z,11.70
2019-03-04T08:25:11.933Z,12.78
2019-03-04T08:27:54.470Z,11.78
2019-03-04T08:30:42.833Z,8.63
2019-03-04T08:33:13.363Z,11.65
2019-03-04T08:35:43.839Z,9.35
2019-03-04T08:38:29.612Z,12.28
2019-03-04T08:41:18.269Z,11.10
2019-03-04T08:44:06.291Z,10.75
2019-03-04T08:46:51.861Z,14.00
2019-03-04T08:49:40.742Z,10.48
2019-03-04T08:52:17.378Z,11.88
2019-03-04T08:55:07.607Z,11.65
2019-03-04T08:57:38.188Z,8.40
2019-03-04T09:00:26.100Z,7.30
2019-03-04T09:02:56.542Z,8.30
2019-03-04T09:05:36.234Z,12.53
2019-03-04T09:08:12.914Z,10.98
2019-03-04T09:10:49.698Z,7.70
2019-03-04T09:13:38.402Z,8.93
2019-03-04T09:16:26.475Z,7.87
2019-03-04T09:18:56.974Z,10.40
2019-03-04T09:21:42.669Z,8.93
2019-03-04T09:24:23.791Z,8.50
2019-03-04T09:26:54.257Z,9.13
2019-03-04T09:29:30.810Z,5.75
2019-03-04T09:32:18.746Z,7.65
2019-03-04T09:35:10.119Z,8.05
2019-03-04T09:37:42.145Z,10.72
2019-03-04T09:40:32.044Z,8.33
2019-03-04T09:43:21.099Z,8.55
2019-03-04T09:45:51.631Z,7.10
2019-03-04T09:48:31.192Z,6.50
2019-03-04T09:51:07.756Z,9.63
2019-03-04T09:53:50.841Z,7.33
2019-03-04T09:56:27.245Z,9.43
2019-03-04T09:59:15.493Z,8.10
2019-03-04T10:01:49.574Z,7.42
2019-03-04T10:04:38.903Z,5.22
2019-03-04T10:07:33.316Z,6.95
2019-03-04T10:10:33.219Z,5.17
2019-03-04T10:13:27.149Z,6.40
2019-03-04T10:16:04.602Z,6.78
2019-03-04T10:18:54.593Z,7.90
2019-03-04T10:21:59.774Z,4.92
2019-03-04T10:24:48.830Z,5.22
2019-03-04T10:27:31.508Z,4.92
2019-03-04T10:30:11.371Z,5.37
2019-03-04T10:32:57.936Z,3.00
2019-03-04T10:35:51.335Z,7.25
2019-03-04T10:38:32.928Z,6.15
2019-03-04T10:41:28.191Z,7.17
2019-03-04T10:44:37.835Z,6.85
2019-03-04T10:47:06.038Z,8.93
2019-03-04T10:49:38.441Z,5.37
2019-03-04T10:52:10.436Z,4.62
2019-03-04T10:54:42.359Z,6.70
2019-03-04T10:57:12.956Z,5.30
2019-03-04T10:59:44.718Z,5.42
2019-03-04T11:02:15.630Z,6.80
2019-03-04T11:04:47.421Z,6.03
2019-03-04T11:07:18.490Z,5.50
2019-03-04T11:09:49.010Z,3.30
2019-03-04T11:12:21.146Z,5.53
2019-03-04T11:14:54.057Z,6.92
2019-03-04T11:17:25.611Z,4.87
2019-03-04T11:19:56.136Z,7.15
2019-03-04T11:22:26.638Z,12.63
2019-03-04T11:24:58.318Z,5.37
2019-03-04T11:27:30.729Z,7.40
2019-03-04T11:30:03.014Z,9.78
2019-03-04T11:32:34.794Z,5.60
2019-03-04T11:35:10.169Z,5.58
2019-03-04T11:37:41.606Z,4.45
2019-03-04T11:40:25.843Z,7.72
2019-03-04T11:42:56.908Z,5.72
2019-03-04T11:45:30.111Z,4.70
2019-03-04T11:48:01.557Z,4.45
2019-03-04T11:50:35.242Z,5.33
2019-03-04T11:53:08.769Z,4.35
2019-03-04T11:55:40.370Z,5.50
2019-03-04T11:58:12.500Z,7.58
2019-03-04T12:00:59.445Z,11.35
2019-03-04T12:03:29.935Z,7.12
2019-03-04T12:06:02.041Z,7.15
2019-03-04T12:08:34.565Z,5.50
2019-03-04T12:11:08.725Z,5.42
2019-03-04T12:13:40.404Z,4.50
2019-03-04T12:16:10.936Z,7.85
2019-03-04T12:18:41.440Z,5.78
2019-03-04T12:21:15.401Z,6.22
2019-03-04T12:23:46.117Z,5.55
2019-03-04T12:26:18.590Z,7.58
2019-03-04T12:28:52.438Z,6.40
2019-03-04T12:31:24.624Z,8.30
2019-03-04T12:33:56.722Z,4.70
2019-03-04T12:36:29.695Z,5.55
2019-03-04T12:39:02.650Z,6.08
2019-03-04T12:41:36.187Z,6.35
2019-03-04T12:44:07.013Z,5.45
2019-03-04T12:46:37.529Z,5.10
2019-03-04T12:49:09.171Z,3.37
2019-03-04T12:51:40.779Z,9.65
2019-03-04T12:54:11.289Z,5.50
2019-03-04T12:56:43.685Z,4.05
2019-03-04T12:59:14.720Z,5.28
2019-03-04T13:01:46.745Z,6.15
2019-03-04T13:04:17.432Z,4.65
2019-03-04T13:06:47.890Z,6.58
2019-03-04T13:09:19.357Z,4.62
2019-03-04T13:11:49.897Z,4.37
2019-03-04T13:14:21.351Z,6.67
2019-03-04T13:16:53.376Z,6.12
2019-03-04T13:19:24.347Z,4.83
2019-03-04T13:21:55.849Z,4.72
2019-03-04T13:24:26.289Z,5.95
2019-03-04T13:26:57.499Z,6.42
2019-03-04T13:29:27.920Z,10.68
2019-03-04T13:31:58.786Z,8.35
2019-03-04T13:34:29.423Z,12.20
2019-03-04T13:36:59.958Z,12.65
2019-03-04T13:39:30.561Z,12.33
2019-03-04T13:42:02.104Z,7.20
2019-03-04T13:44:32.990Z,6.12
2019-03-04T13:47:07.083Z,14.58
2019-03-04T13:49:37.591Z,15.98
2019-03-04T13:52:08.319Z,8.20
2019-03-04T13:54:38.742Z,4.47
2019-03-04T13:57:10.013Z,39.67
2019-03-04T13:59:40.561Z,11.85
2019-03-04T14:02:12.530Z,39.83
2019-03-04T14:04:44.689Z,26.77
2019-03-04T14:07:15.227Z,24.52
2019-03-04T14:09:47.269Z,18.92
2019-03-04T14:12:19.346Z,31.40
2019-03-04T14:14:50.216Z,17.73
2019-03-04T14:17:20.750Z,12.93
2019-03-04T14:19:51.247Z,15.43
2019-03-04T14:22:21.852Z,8.73
2019-03-04T14:24:52.283Z,7.72
2019-03-04T14:27:22.796Z,11.10
2019-03-04T14:29:53.451Z,14.30
2019-03-04T14:32:26.141Z,11.05
2019-03-04T14:34:57.179Z,8.83
2019-03-04T14:37:35.432Z,6.58
2019-03-04T14:40:32.661Z,10.82
2019-03-04T14:43:10.625Z,5.58
2019-03-04T14:45:41.057Z,8.25
2019-03-04T14:48:11.521Z,11.88
2019-03-04T14:50:42.170Z,9.40
2019-03-04T14:53:12.638Z,11.18
2019-03-04T14:55:43.239Z,10.43
2019-03-04T14:58:13.712Z,12.80
2019-03-04T15:00:51.589Z,6.47
2019-03-04T15:03:23.837Z,7.83
2019-03-04T15:05:54.264Z,5.37
2019-03-04T15:08:24.800Z,8.93
2019-03-04T15:10:55.225Z,5.45
2019-03-04T15:13:25.682Z,5.50
2019-03-04T15:16:01.658Z,4.72
2019-03-04T15:18:29.341Z,3.77
2019-03-04T15:20:59.772Z,5.20
2019-03-04T15:23:30.392Z,4.53
2019-03-04T15:26:00.830Z,4.65
2019-03-04T15:28:31.350Z,6.00
2019-03-04T15:31:05.268Z,6.67
2019-03-04T15:33:37.732Z,10.90
2019-03-04T15:36:08.161Z,7.35
2019-03-04T15:38:38.635Z,7.22
2019-03-04T15:41:10.522Z,5.37
2019-03-04T15:43:43.494Z,5.03
2019-03-04T15:46:16.216Z,5.30
2019-03-04T15:48:46.918Z,4.50
2019-03-04T15:51:17.916Z,9.13
2019-03-04T15:53:50.328Z,7.72
2019-03-04T15:56:20.741Z,10.45
2019-03-04T15:58:51.832Z,5.90
2019-03-04T16:01:22.680Z,4.87
2019-03-04T16:03:53.589Z,4.00
2019-03-04T16:06:24.891Z,3.02
2019-03-04T16:08:57.104Z,3.08
2019-03-04T16:11:27.647Z,6.08
2019-03-04T16:13:59.677Z,5.55
2019-03-04T16:16:30.620Z,5.67
2019-03-04T16:19:01.169Z,4.37
2019-03-04T16:21:32.249Z,4.62
2019-03-04T16:24:03.255Z,4.62
2019-03-04T16:26:34.864Z,3.10
2019-03-04T16:29:05.729Z,7.05
2019-03-04T16:31:36.309Z,4.72
2019-03-04T16:34:06.850Z,13.60
2019-03-04T16:36:37.463Z,6.15
2019-03-04T16:39:10.261Z,12.15
2019-03-04T16:41:41.694Z,5.75
2019-03-04T16:44:17.057Z,6.00
2019-03-04T16:46:48.528Z,6.20
2019-03-04T16:49:19.194Z,4.10
2019-03-04T16:51:50.349Z,6.22
2019-03-04T16:54:20.919Z,6.47
2019-03-04T16:56:51.465Z,5.10
2019-03-04T16:59:22.025Z,4.55
2019-03-04T17:01:53.522Z,4.12
2019-03-04T17:04:24.159Z,5.22
2019-03-04T17:06:55.884Z,5.62
2019-03-04T17:09:26.483Z,4.53
2019-03-04T17:11:57.385Z,7.87
2019-03-04T17:14:29.179Z,9.18
2019-03-04T17:17:00.073Z,6.58
2019-03-04T17:19:31.933Z,2.52
2019-03-04T17:22:02.603Z,10.85
2019-03-04T17:24:35.650Z,17.40
2019-03-04T17:27:08.683Z,10.43
2019-03-04T17:29:40.116Z,7.85
2019-03-04T17:32:11.014Z,5.10
2019-03-04T17:34:41.560Z,3.22
2019-03-04T17:37:12.838Z,8.63
2019-03-04T17:39:43.869Z,11.45
2019-03-04T17:42:14.572Z,10.28
2019-03-04T17:44:45.087Z,7.80
2019-03-04T17:47:15.595Z,13.75
2019-03-04T17:49:46.213Z,10.78
2019-03-04T17:52:16.693Z,3.90
2019-03-04T17:54:47.151Z,7.87
2019-03-04T17:57:17.861Z,12.55
2019-03-04T17:59:48.395Z,5.22
2019-03-04T18:02:19.068Z,5.30
2019-03-04T18:04:49.727Z,8.73
2019-03-04T18:07:20.219Z,5.40
2019-03-04T18:09:50.716Z,19.62
2019-03-04T18:12:53.292Z,13.68
2019-03-04T18:16:15.831Z,9.18
2019-03-04T18:18:53.862Z,15.95
2019-03-04T18:21:24.438Z,12.55
2019-03-04T18:23:54.942Z,6.08
2019-03-04T18:26:31.674Z,9.65
2019-03-04T18:29:23.094Z,6.62
2019-03-04T18:32:08.803Z,13.98
2019-03-04T18:34:42.561Z,23.60
2019-03-04T18:37:21.886Z,22.62
2019-03-04T18:39:58.153Z,11.83
2019-03-04T18:42:34.844Z,15.58
2019-03-04T18:45:14.241Z,10.48
2019-03-04T18:48:00.401Z,12.20
2019-03-04T18:50:30.921Z,11.83
2019-03-04T18:53:01.841Z,9.93
2019-03-04T18:55:33.357Z,6.42
2019-03-04T18:58:04.161Z,7.40
2019-03-04T19:00:34.673Z,17.60
2019-03-04T19:03:05.291Z,8.95
2019-03-04T19:05:36.783Z,4.75
2019-03-04T19:08:07.325Z,6.60
2019-03-04T19:10:37.806Z,9.28
2019-03-04T19:13:08.352Z,7.87
2019-03-04T19:15:38.801Z,11.40
2019-03-04T19:18:09.373Z,4.10
2019-03-04T19:20:39.901Z,4.10
2019-03-04T19:23:10.558Z,1.70
2019-03-04T19:25:41.032Z,3.08
2019-03-04T19:28:11.578Z,1.32
2019-03-04T19:31:18.496Z,2.08
2019-03-04T19:33:51.293Z,3.05
2019-03-04T19:36:23.249Z,6.75
2019-03-04T19:38:55.894Z,5.55
2019-03-04T19:41:27.109Z,4.53
2019-03-04T19:43:57.547Z,2.35
2019-03-04T19:46:28.032Z,1.27
2019-03-04T19:48:58.581Z,2.92
2019-03-04T19:51:29.458Z,2.77
2019-03-04T19:54:06.352Z,1.32
2019-03-04T19:56:38.756Z,3.27
2019-03-04T19:59:09.466Z,2.37
2019-03-04T20:01:40.346Z,2.27
2019-03-04T20:04:12.634Z,2.67
2019-03-04T20:06:43.122Z,3.33
2019-03-04T20:09:13.737Z,1.22
2019-03-04T20:11:44.230Z,2.77
2019-03-04T20:14:15.165Z,2.62
2019-03-04T20:16:47.013Z,3.00
2019-03-04T20:19:17.521Z,2.67
2019-03-04T20:21:47.945Z,4.85
2019-03-04T20:24:18.535Z,2.55
2019-03-04T20:26:49.015Z,3.17
2019-03-04T20:29:19.523Z,2.30
2019-03-04T20:31:50.009Z,4.00
2019-03-04T20:34:20.742Z,3.27
2019-03-04T20:36:51.253Z,3.40
2019-03-04T20:39:21.852Z,4.25
2019-03-04T20:41:52.352Z,4.22
2019-03-04T20:44:22.876Z,2.33
2019-03-04T20:46:53.441Z,5.47
2019-03-04T20:49:24.042Z,3.22
2019-03-04T20:51:55.547Z,6.53
2019-03-04T20:54:26.052Z,3.50
2019-03-04T20:56:56.673Z,5.67
2019-03-04T20:59:27.177Z,3.83
2019-03-04T21:01:57.746Z,3.87
2019-03-04T21:04:41.250Z,2.75
2019-03-04T21:07:13.993Z,3.85
2019-03-04T21:09:45.129Z,2.05
2019-03-04T21:12:15.657Z,3.10
2019-03-04T21:14:46.229Z,1.92
2019-03-04T21:17:16.718Z,2.87
2019-03-04T21:19:47.247Z,2.33
2019-03-04T21:22:17.746Z,3.70
2019-03-04T21:24:48.275Z,4.58
2019-03-04T21:27:18.762Z,3.35
2019-03-04T21:30:16.607Z,4.70
2019-03-04T21:32:47.280Z,3.83
2019-03-04T21:35:36.979Z,5.78
2019-03-04T21:38:07.541Z,5.05
2019-03-04T21:40:43.931Z,4.85
2019-03-04T21:43:18.664Z,5.95
2019-03-04T21:46:07.293Z,4.12
2019-03-04T21:48:43.705Z,7.17
2019-03-04T21:51:38.285Z,4.85
2019-03-04T21:54:07.457Z,4.28
2019-03-04T21:57:00.254Z,4.92
2019-03-04T21:59:30.753Z,3.37
2019-03-04T22:02:23.198Z,3.52
2019-03-04T22:04:54.742Z,2.62
2019-03-04T22:07:25.278Z,3.80
2019-03-04T22:09:55.727Z,7.25
2019-03-04T22:12:26.245Z,4.20
2019-03-04T22:14:56.802Z,2.40
2019-03-04T22:17:27.337Z,4.85
2019-03-04T22:19:57.756Z,3.15
2019-03-04T22:22:28.342Z,4.28
2019-03-04T22:25:16.425Z,5.67
2019-03-04T22:28:14.006Z,3.72
2019-03-04T22:30:53.141Z,4.30
2019-03-04T22:33:25.074Z,4.20
2019-03-04T22:36:06.124Z,3.05
2019-03-04T22:38:39.830Z,4.05
2019-03-04T22:41:10.659Z,2.30
2019-03-04T22:43:41.173Z,3.60
2019-03-04T22:46:11.598Z,3.05
2019-03-04T22:48:42.214Z,3.02
2019-03-04T22:51:13.684Z,3.02
2019-03-04T22:53:45.201Z,3.83
2019-03-04T22:56:16.714Z,3.87
2019-03-04T22:58:47.211Z,4.22
2019-03-04T23:01:26.926Z,4.28
2019-03-04T23:04:00.527Z,4.80
2019-03-04T23:06:36.992Z,3.75
2019-03-04T23:09:10.706Z,3.45
2019-03-04T23:11:44.695Z,3.37
2019-03-04T23:14:18.541Z,2.90
2019-03-04T23:16:49.024Z,4.80
2019-03-04T23:19:19.480Z,5.53
2019-03-04T23:21:49.981Z,4.62
2019-03-04T23:24:20.442Z,4.95
2019-03-04T23:26:50.936Z,4.75
2019-03-04T23:29:21.402Z,7.12
2019-03-04T23:31:51.830Z,5.42
2019-03-04T23:34:23.454Z,7.65
2019-03-04T23:36:53.872Z,4.35
2019-03-04T23:39:24.331Z,7.72
2019-03-04T23:41:54.753Z,4.50
2019-03-04T23:44:25.198Z,6.97
2019-03-04T23:46:55.693Z,6.20
2019-03-04T23:49:26.136Z,4.17
2019-03-04T23:51:56.537Z,7.45
2019-03-04T23:54:26.985Z,5.70
2019-03-04T23:56:57.410Z,6.25
2019-03-04T23:59:28.023Z,9.30
